createdAt,value
2022-10-28T06:13:48.037Z,12.07
2022-10-28T06:16:28.417Z,12.05
2022-10-28T06:19:05.268Z,12.04
2022-10-28T06:21:42.513Z,12.00
2022-10-28T06:24:19.647Z,11.99
2022-10-28T06:26:56.801Z,12.02
2022-10-28T06:29:33.802Z,11.98
2022-10-28T06:32:15.226Z,12.03
2022-10-28T06:34:52.244Z,12.02
2022-10-28T06:37:29.178Z,11.97
2022-10-28T06:40:07.410Z,11.98
2022-10-28T06:42:44.408Z,12.02
2022-10-28T06:45:21.755Z,12.04
2022-10-28T06:48:05.659Z,12.02
2022-10-28T06:50:45.597Z,12.03
2022-10-28T06:53:23.443Z,12.05
2022-10-28T06:56:01.630Z,12.09
2022-10-28T06:58:38.848Z,12.09
2022-10-28T07:01:17.975Z,12.13
2022-10-28T07:03:57.273Z,12.15
2022-10-28T07:06:34.411Z,12.16
2022-10-28T07:09:12.704Z,12.14
2022-10-28T07:11:55.129Z,12.14
2022-10-28T07:14:35.115Z,12.13
2022-10-28T07:17:12.261Z,12.16
2022-10-28T07:19:51.702Z,12.16
2022-10-28T07:22:28.922Z,12.17
2022-10-28T07:25:05.820Z,12.16
2022-10-28T07:27:43.494Z,12.19
2022-10-28T07:30:20.594Z,12.24
2022-10-28T07:33:01.207Z,12.28
2022-10-28T07:35:40.886Z,12.36
2022-10-28T07:38:18.176Z,12.32
2022-10-28T07:40:54.909Z,12.39
2022-10-28T07:43:32.660Z,12.44
2022-10-28T07:46:10.818Z,12.49
2022-10-28T07:48:48.427Z,12.54
2022-10-28T07:51:28.230Z,12.59
2022-10-28T07:54:05.357Z,12.65
2022-10-28T07:56:42.138Z,12.69
2022-10-28T07:59:25.856Z,12.76
2022-10-28T08:02:03.964Z,12.81
2022-10-28T08:04:41.255Z,12.83
2022-10-28T08:07:21.561Z,12.89
2022-10-28T08:09:58.638Z,12.92
2022-10-28T08:12:35.687Z,13.00
2022-10-28T08:15:15.236Z,13.08
2022-10-28T08:17:55.790Z,13.08
2022-10-28T08:20:33.109Z,13.15
2022-10-28T08:23:12.446Z,13.25
2022-10-28T08:25:53.865Z,13.32
2022-10-28T08:28:30.906Z,13.40
2022-10-28T08:31:12.731Z,13.49
2022-10-28T08:33:49.656Z,13.60
2022-10-28T08:36:26.753Z,13.69
2022-10-28T08:39:06.355Z,13.81
2022-10-28T08:41:52.167Z,13.96
2022-10-28T08:44:55.625Z,14.10
2022-10-28T08:47:45.013Z,14.23
2022-10-28T08:50:25.228Z,14.40
2022-10-28T08:53:09.998Z,14.61
2022-10-28T08:55:54.118Z,14.81
2022-10-28T08:58:36.543Z,15.05
2022-10-28T09:01:24.641Z,15.25
2022-10-28T09:04:08.799Z,15.51
2022-10-28T09:06:45.509Z,15.79
2022-10-28T09:09:26.168Z,16.08
2022-10-28T09:12:30.813Z,16.40
2022-10-28T09:15:27.945Z,16.61
2022-10-28T09:18:18.471Z,16.88
2022-10-28T09:20:58.892Z,17.17
2022-10-28T09:23:40.440Z,17.47
2022-10-28T09:26:35.956Z,17.71
2022-10-28T09:29:37.195Z,18.01
2022-10-28T09:32:22.679Z,18.33
2022-10-28T09:35:06.765Z,18.55
2022-10-28T09:37:50.041Z,18.84
2022-10-28T09:40:33.788Z,19.10
2022-10-28T09:43:23.509Z,19.28
2022-10-28T09:46:07.590Z,19.60
2022-10-28T09:48:49.291Z,19.91
2022-10-28T09:51:36.539Z,20.18
2022-10-28T09:54:16.369Z,20.35
2022-10-28T09:56:55.705Z,20.42
2022-10-28T09:59:33.259Z,20.56
2022-10-28T10:02:31.228Z,20.56
2022-10-28T10:05:18.070Z,20.46
2022-10-28T10:07:59.701Z,20.49
2022-10-28T10:10:49.270Z,20.34
2022-10-28T10:13:31.372Z,20.23
2022-10-28T10:16:19.183Z,20.26
2022-10-28T10:19:04.260Z,20.28
2022-10-28T10:21:49.589Z,20.17
2022-10-28T10:24:34.439Z,20.17
2022-10-28T10:27:22.603Z,20.06
2022-10-28T10:29:59.828Z,20.04
2022-10-28T10:32:37.568Z,19.92
2022-10-28T10:35:27.504Z,19.92
2022-10-28T10:38:08.646Z,20.00
2022-10-28T10:40:53.527Z,20.16
2022-10-28T10:43:36.697Z,20.33
2022-10-28T10:46:20.391Z,20.39
2022-10-28T10:49:16.130Z,20.57
2022-10-28T10:52:01.570Z,20.64
2022-10-28T10:54:41.112Z,20.74
2022-10-28T10:57:23.872Z,20.57
2022-10-28T11:00:01.686Z,20.47
2022-10-28T11:02:43.153Z,20.51
2022-10-28T11:05:29.263Z,20.45
2022-10-28T11:08:42.972Z,20.48
2022-10-28T11:11:25.845Z,20.23
2022-10-28T11:14:09.660Z,20.13
2022-10-28T11:16:54.874Z,19.95
2022-10-28T11:19:35.112Z,19.72
2022-10-28T11:22:30.809Z,19.66
2022-10-28T11:25:39.582Z,19.66
2022-10-28T11:28:40.844Z,19.80
2022-10-28T11:32:00.435Z,19.99
2022-10-28T11:34:56.724Z,20.10
2022-10-28T11:37:52.791Z,20.08
2022-10-28T11:40:42.701Z,20.29
2022-10-28T11:43:31.539Z,20.25
2022-10-28T11:46:19.203Z,20.16
2022-10-28T11:50:02.783Z,20.12
2022-10-28T11:53:00.522Z,20.12
2022-10-28T11:55:46.357Z,20.11
2022-10-28T11:58:37.515Z,20.30
2022-10-28T12:01:35.091Z,20.17
2022-10-28T12:04:26.756Z,20.14
2022-10-28T12:07:24.369Z,20.05
2022-10-28T12:10:35.210Z,20.21
2022-10-28T12:13:24.154Z,20.19
2022-10-28T12:16:10.606Z,20.33
2022-10-28T12:18:56.677Z,20.17
2022-10-28T12:21:38.629Z,20.04
2022-10-28T12:24:20.469Z,19.82
2022-10-28T12:27:01.436Z,19.65
2022-10-28T12:29:46.847Z,19.48
2022-10-28T12:32:29.367Z,19.48
2022-10-28T12:35:15.854Z,19.51
2022-10-28T12:38:01.903Z,19.49
2022-10-28T12:40:47.394Z,19.42
2022-10-28T12:43:29.055Z,19.48
2022-10-28T12:46:13.473Z,19.50
2022-10-28T12:48:58.635Z,19.67
2022-10-28T12:51:41.964Z,19.83
2022-10-28T12:54:31.350Z,19.99
2022-10-28T12:57:16.546Z,20.24
2022-10-28T13:00:00.867Z,20.44
2022-10-28T13:02:49.902Z,20.52
2022-10-28T13:05:33.115Z,20.66
2022-10-28T13:09:13.323Z,20.82
2022-10-28T13:12:33.303Z,21.00
2022-10-28T13:15:55.821Z,21.16
2022-10-28T13:19:02.502Z,21.26
2022-10-28T13:22:09.912Z,21.25
2022-10-28T13:24:59.703Z,21.41
2022-10-28T13:30:35.631Z,21.44
2022-10-28T13:33:21.605Z,21.39
2022-10-28T13:36:21.753Z,21.29
2022-10-28T13:39:01.721Z,21.31
2022-10-28T13:41:43.542Z,21.36
2022-10-28T13:44:49.728Z,21.33
2022-10-28T13:47:35.252Z,21.16
2022-10-28T13:50:38.269Z,21.10
2022-10-28T13:53:56.943Z,21.04
2022-10-28T13:56:49.911Z,20.94
2022-10-28T13:59:36.640Z,20.80
2022-10-28T14:02:35.151Z,20.69
2022-10-28T14:05:15.819Z,20.40
2022-10-28T14:07:59.007Z,20.29
2022-10-28T14:10:41.701Z,20.18
2022-10-28T14:13:24.391Z,20.16
2022-10-28T14:16:29.496Z,20.15
2022-10-28T14:19:18.331Z,20.11
2022-10-28T14:22:03.251Z,20.13
2022-10-28T14:24:42.631Z,19.90
2022-10-28T14:27:43.737Z,19.89
2022-10-28T14:30:27.081Z,19.75
2022-10-28T14:33:24.510Z,19.52
2022-10-28T14:36:33.499Z,19.48
2022-10-28T14:39:38.831Z,19.31
2022-10-28T14:42:36.889Z,19.24
2022-10-28T14:45:33.588Z,19.13
2022-10-28T14:48:48.880Z,18.99
2022-10-28T14:51:29.511Z,18.83
2022-10-28T14:54:11.637Z,18.73
2022-10-28T14:56:49.978Z,18.64
2022-10-28T14:59:36.347Z,18.59
2022-10-28T15:02:19.209Z,18.59
2022-10-28T15:05:07.831Z,18.52
2022-10-28T15:07:45.916Z,18.46
2022-10-28T15:10:30.167Z,18.48
2022-10-28T15:13:07.538Z,18.44
2022-10-28T15:15:59.322Z,18.34
2022-10-28T15:18:39.389Z,18.24
2022-10-28T15:21:21.137Z,18.21
2022-10-28T15:24:07.416Z,18.17
2022-10-28T15:26:44.436Z,18.12
2022-10-28T15:29:21.675Z,18.10
2022-10-28T15:32:17.509Z,18.09
2022-10-28T15:34:54.624Z,18.04
2022-10-28T15:37:34.035Z,18.01
2022-10-28T15:40:30.257Z,17.98
2022-10-28T15:43:09.156Z,17.94
2022-10-28T15:45:46.385Z,17.89
2022-10-28T15:48:30.475Z,17.86
2022-10-28T15:51:19.214Z,17.82
2022-10-28T15:53:57.107Z,17.76
2022-10-28T15:56:34.706Z,17.75
2022-10-28T15:59:23.545Z,17.72
2022-10-28T16:02:02.015Z,17.67
2022-10-28T16:04:48.048Z,17.62
2022-10-28T16:07:25.299Z,17.54
2022-10-28T16:10:02.165Z,17.47
2022-10-28T16:12:39.407Z,17.39
2022-10-28T16:15:19.397Z,17.37
2022-10-28T16:17:57.829Z,17.34
2022-10-28T16:20:38.246Z,17.29
2022-10-28T16:23:20.956Z,17.22
2022-10-28T16:25:58.961Z,17.21
2022-10-28T16:28:38.157Z,17.18
2022-10-28T16:31:21.050Z,17.12
2022-10-28T16:33:58.634Z,17.04
2022-10-28T16:36:39.025Z,17.08
2022-10-28T16:39:17.425Z,17.02
2022-10-28T16:41:56.888Z,17.00
2022-10-28T16:44:34.985Z,16.96
2022-10-28T16:47:16.127Z,16.92
2022-10-28T16:49:57.248Z,16.88
2022-10-28T16:52:39.387Z,16.87
2022-10-28T16:55:20.488Z,16.85
2022-10-28T16:57:57.653Z,16.75
2022-10-28T17:00:36.634Z,16.72
2022-10-28T17:03:17.836Z,16.70
2022-10-28T17:05:55.894Z,16.65
2022-10-28T17:09:01.282Z,16.76
2022-10-28T17:11:34.861Z,16.71
2022-10-28T17:14:12.298Z,16.61
2022-10-28T17:16:50.623Z,16.56
2022-10-28T17:19:28.626Z,16.52
2022-10-28T17:22:09.217Z,16.44
2022-10-28T17:24:50.321Z,16.45
2022-10-28T17:27:29.300Z,16.39
2022-10-28T17:30:07.980Z,16.38
2022-10-28T17:32:45.585Z,16.35
2022-10-28T17:35:29.486Z,16.32
2022-10-28T17:38:06.645Z,16.28
2022-10-28T17:40:46.455Z,16.20
2022-10-28T17:43:24.584Z,16.16
2022-10-28T17:46:08.241Z,16.16
2022-10-28T17:48:45.736Z,16.10
2022-10-28T17:51:25.491Z,16.05
2022-10-28T17:54:03.068Z,16.03
2022-10-28T17:56:42.682Z,15.98
2022-10-28T17:59:20.257Z,15.91
2022-10-28T18:01:57.732Z,15.86
2022-10-28T18:04:35.461Z,15.80
2022-10-28T18:07:12.888Z,15.70
2022-10-28T18:09:50.377Z,15.75
2022-10-28T18:12:30.129Z,15.69
2022-10-28T18:15:10.315Z,15.69
2022-10-28T18:17:48.127Z,15.70
2022-10-28T18:20:25.610Z,15.67
2022-10-28T18:23:03.360Z,15.61
2022-10-28T18:25:42.075Z,15.62
2022-10-28T18:28:24.118Z,15.60
2022-10-28T18:31:05.941Z,15.56
2022-10-28T18:33:44.107Z,15.53
2022-10-28T18:36:24.473Z,15.50
2022-10-28T18:39:02.199Z,15.46
2022-10-28T18:41:43.450Z,15.41
2022-10-28T18:44:27.800Z,15.38
2022-10-28T18:47:08.348Z,15.34
2022-10-28T18:49:45.847Z,15.32
2022-10-28T18:52:23.456Z,15.32
2022-10-28T18:55:01.468Z,15.30
2022-10-28T18:57:39.577Z,15.23
2022-10-28T19:00:21.345Z,15.20
2022-10-28T19:03:02.854Z,15.18
2022-10-28T19:05:40.048Z,15.13
2022-10-28T19:08:17.498Z,15.09
2022-10-28T19:10:59.829Z,15.09
2022-10-28T19:13:39.589Z,15.02
2022-10-28T19:16:21.726Z,14.98
2022-10-28T19:19:01.119Z,14.92
2022-10-28T19:21:39.259Z,15.00
2022-10-28T19:24:22.443Z,14.88
2022-10-28T19:27:02.388Z,14.86
2022-10-28T19:29:40.362Z,14.87
2022-10-28T19:32:25.367Z,14.90
2022-10-28T19:35:05.431Z,14.82
2022-10-28T19:37:43.263Z,14.81
2022-10-28T19:40:21.021Z,14.84
2022-10-28T19:42:58.337Z,14.76
2022-10-28T19:45:35.848Z,14.76
2022-10-28T19:48:18.447Z,14.74
2022-10-28T19:50:59.878Z,14.70
2022-10-28T19:53:37.636Z,14.66
2022-10-28T19:56:19.707Z,14.65
2022-10-28T19:58:59.889Z,14.65
2022-10-28T20:01:41.282Z,14.64
2022-10-28T20:04:21.919Z,14.63
2022-10-28T20:07:00.828Z,14.58
2022-10-28T20:09:38.259Z,14.55
2022-10-28T20:12:16.486Z,14.54
2022-10-28T20:14:53.292Z,14.49
2022-10-28T20:17:31.088Z,14.44
2022-10-28T20:20:14.554Z,14.41
2022-10-28T20:22:51.318Z,14.41
2022-10-28T20:25:31.358Z,14.37
2022-10-28T20:28:10.768Z,14.36
2022-10-28T20:30:48.648Z,14.34
2022-10-28T20:33:27.268Z,14.30
2022-10-28T20:36:08.898Z,14.27
2022-10-28T20:38:46.229Z,14.24
2022-10-28T20:41:23.278Z,14.24
2022-10-28T20:44:01.449Z,14.20
